Aeroporto :
LOGIN :

Iscrizione | Disclaimer

   EN    FR    IT 

 










Sommario :    VFR   VFR Marginale   IFR   IFR Intensivo   IFR Molto Intensivo
Visibilità : 
Base nubi : 
>= 8 km
>= 3000ft
5 / 8 km
1000 / 3000 ft
1500m / 5 km
500 / 1000 ft
800 / 1500m
200 / 500 ft
< 800m
< 200 ft
Simboli :   Temporali  Nebbia  Neve Forte  Precipitazioni Forti  Vento > 20 kt
SIGMETs :   Varie  Temporali  Ghiacco  Turbolenza  Onda orograficha  Ceneri Vulcaniche






- Altitudine del aeroporto : 63 ft
- Codice IATA : BZM


EHWO - Woensdrecht Airbase

ULTIMO METAR :
  • 191755Z AUTO 23006KT 9999 SCT027 OVC150 12/09 Q1004 BLU

METARs OBSOLETI :
  • 191733Z AUTO 22006KT 190V260 9999 FEW023 SCT027 BKN031 13/09 Q1004 BLU
  • 191725Z AUTO 22006KT 180V240 9999 BKN025 BKN029 BKN037 13/09 Q1004 BLU
  • 191655Z AUTO 21005KT 170V260 9999 FEW015CB SCT053 BKN170 13/09 Q1004 BLU
  • 191625Z AUTO 21006KT 150V240 9999 OVC160 13/09 Q1003 BLU
  • 191610Z AUTO 21007KT 170V250 9999 FEW023 OVC160 14/09 Q1003 BLU
  • 191555Z AUTO 20007KT 150V240 9999 FEW022 OVC160 14/09 Q1003 BLU
  • 191540Z AUTO 21008KT 160V250 9999 FEW021 SCT024 OVC160 14/09 Q1003 WHT
  • 191531Z AUTO 21007KT 170V250 9999 SCT021 BKN060 OVC160 14/09 Q1003 WHT
  • 191525Z AUTO 21007KT 170V250 9999 SCT021 BKN063 OVC160 14/09 Q1003 WHT
  • 191504Z AUTO 21007KT 160V250 9999 BKN022 BKN027 OVC051 14/09 Q1003 WHT

Previsioni scadute.



MetMap, La meteo Aeronautica in un colpo d'occhio ! - Copyright ORBIFLY Dicembre 2007 - Disclaimer

ORBIFLY MET'MAP TEAM :

Programmazione e sviluppo : Alexandra Zaïnal
Concezione e sviluppo : Baudouin d'Aumeries
Co-Programmazione e sviluppo : Marc-Olivier Méhu
Supporto tecnico e logistico : Manuel Goepfert
Aiuto per la traduzione : Arnaldo La Scala

Contatto : metmap@orbifly.com




FONTI E CREDITI :

   NOAA